sensor_id;sensor_type;location;lat;lon;timestamp;temperature;humidity
55771;DHT22;41687;-33.234;-60.334;2022-12-18T00:01:45;23.40;41.80
55771;DHT22;41687;-33.234;-60.334;2022-12-18T00:04:24;23.40;41.90
55771;DHT22;41687;-33.234;-60.334;2022-12-18T00:06:52;23.40;41.30
55771;DHT22;41687;-33.234;-60.334;2022-12-18T00:09:21;23.30;41.80
55771;DHT22;41687;-33.234;-60.334;2022-12-18T00:11:48;23.30;41.20
55771;DHT22;41687;-33.234;-60.334;2022-12-18T00:14:16;23.30;41.70
55771;DHT22;41687;-33.234;-60.334;2022-12-18T00:16:46;23.30;41.60
55771;DHT22;41687;-33.234;-60.334;2022-12-18T00:19:14;23.30;41.90
55771;DHT22;41687;-33.234;-60.334;2022-12-18T00:21:43;23.20;41.80
55771;DHT22;41687;-33.234;-60.334;2022-12-18T00:24:11;23.20;41.90
55771;DHT22;41687;-33.234;-60.334;2022-12-18T00:26:39;23.20;41.80
55771;DHT22;41687;-33.234;-60.334;2022-12-18T00:29:11;23.10;42.00
55771;DHT22;41687;-33.234;-60.334;2022-12-18T00:31:43;23.10;42.20
55771;DHT22;41687;-33.234;-60.334;2022-12-18T00:34:12;23.10;42.30
55771;DHT22;41687;-33.234;-60.334;2022-12-18T00:36:40;23.10;42.50
55771;DHT22;41687;-33.234;-60.334;2022-12-18T00:39:10;23.00;42.80
55771;DHT22;41687;-33.234;-60.334;2022-12-18T00:41:39;23.10;43.00
55771;DHT22;41687;-33.234;-60.334;2022-12-18T00:44:25;23.00;42.90
55771;DHT22;41687;-33.234;-60.334;2022-12-18T00:46:53;23.00;42.70
55771;DHT22;41687;-33.234;-60.334;2022-12-18T00:49:21;23.00;42.80
55771;DHT22;41687;-33.234;-60.334;2022-12-18T00:51:49;22.90;42.90
55771;DHT22;41687;-33.234;-60.334;2022-12-18T00:54:17;22.90;42.90
55771;DHT22;41687;-33.234;-60.334;2022-12-18T00:56:45;22.90;43.20
55771;DHT22;41687;-33.234;-60.334;2022-12-18T00:59:13;22.90;43.30
55771;DHT22;41687;-33.234;-60.334;2022-12-18T01:01:41;22.80;43.30
55771;DHT22;41687;-33.234;-60.334;2022-12-18T01:04:09;22.80;43.50
55771;DHT22;41687;-33.234;-60.334;2022-12-18T01:06:37;22.80;43.30
55771;DHT22;41687;-33.234;-60.334;2022-12-18T01:09:05;22.70;43.40
55771;DHT22;41687;-33.234;-60.334;2022-12-18T01:11:37;22.60;44.20
55771;DHT22;41687;-33.234;-60.334;2022-12-18T01:14:05;22.50;47.00
55771;DHT22;41687;-33.234;-60.334;2022-12-18T01:16:32;22.30;48.00
55771;DHT22;41687;-33.234;-60.334;2022-12-18T01:19:00;22.30;49.60
55771;DHT22;41687;-33.234;-60.334;2022-12-18T01:21:28;22.20;50.00
55771;DHT22;41687;-33.234;-60.334;2022-12-18T01:23:56;22.00;50.90
55771;DHT22;41687;-33.234;-60.334;2022-12-18T01:26:25;21.90;50.30
55771;DHT22;41687;-33.234;-60.334;2022-12-18T01:28:55;21.90;52.50
55771;DHT22;41687;-33.234;-60.334;2022-12-18T01:31:31;21.80;51.90
55771;DHT22;41687;-33.234;-60.334;2022-12-18T01:34:03;21.80;51.80
55771;DHT22;41687;-33.234;-60.334;2022-12-18T01:36:32;21.70;51.80
55771;DHT22;41687;-33.234;-60.334;2022-12-18T01:39:03;21.70;52.30
55771;DHT22;41687;-33.234;-60.334;2022-12-18T01:41:32;21.70;53.60
55771;DHT22;41687;-33.234;-60.334;2022-12-18T01:52:36;21.30;54.60
55771;DHT22;41687;-33.234;-60.334;2022-12-18T01:55:06;21.30;54.20
55771;DHT22;41687;-33.234;-60.334;2022-12-18T01:57:35;21.20;54.80
55771;DHT22;41687;-33.234;-60.334;2022-12-18T02:00:10;21.20;54.60
55771;DHT22;41687;-33.234;-60.334;2022-12-18T02:02:45;21.20;57.50
55771;DHT22;41687;-33.234;-60.334;2022-12-18T02:05:16;21.20;56.00
55771;DHT22;41687;-33.234;-60.334;2022-12-18T02:28:01;20.90;61.10
55771;DHT22;41687;-33.234;-60.334;2022-12-18T02:30:32;20.80;61.00
55771;DHT22;41687;-33.234;-60.334;2022-12-18T02:33:04;20.90;60.30
55771;DHT22;41687;-33.234;-60.334;2022-12-18T02:35:33;20.80;60.60
55771;DHT22;41687;-33.234;-60.334;2022-12-18T02:38:03;20.80;60.30
55771;DHT22;41687;-33.234;-60.334;2022-12-18T02:40:36;20.80;60.70
55771;DHT22;41687;-33.234;-60.334;2022-12-18T02:43:14;20.80;61.70
55771;DHT22;41687;-33.234;-60.334;2022-12-18T02:45:57;20.80;63.40
55771;DHT22;41687;-33.234;-60.334;2022-12-18T02:48:33;20.80;64.40
55771;DHT22;41687;-33.234;-60.334;2022-12-18T02:51:26;20.80;62.90
55771;DHT22;41687;-33.234;-60.334;2022-12-18T02:54:23;20.70;64.90
55771;DHT22;41687;-33.234;-60.334;2022-12-18T02:56:55;20.60;65.10
55771;DHT22;41687;-33.234;-60.334;2022-12-18T02:59:37;20.50;64.20
55771;DHT22;41687;-33.234;-60.334;2022-12-18T03:02:47;20.40;66.00
55771;DHT22;41687;-33.234;-60.334;2022-12-18T03:05:10;20.40;65.40
55771;DHT22;41687;-33.234;-60.334;2022-12-18T03:08:00;20.40;65.00
55771;DHT22;41687;-33.234;-60.334;2022-12-18T03:10:42;20.30;65.60
55771;DHT22;41687;-33.234;-60.334;2022-12-18T03:13:23;20.30;65.20
55771;DHT22;41687;-33.234;-60.334;2022-12-18T03:15:57;20.10;68.00
55771;DHT22;41687;-33.234;-60.334;2022-12-18T03:18:38;20.20;64.80
55771;DHT22;41687;-33.234;-60.334;2022-12-18T03:21:11;20.10;66.70
55771;DHT22;41687;-33.234;-60.334;2022-12-18T03:23:44;20.10;66.00
55771;DHT22;41687;-33.234;-60.334;2022-12-18T03:26:18;20.20;65.40
55771;DHT22;41687;-33.234;-60.334;2022-12-18T03:29:09;20.20;66.90
55771;DHT22;41687;-33.234;-60.334;2022-12-18T03:31:42;20.10;68.60
55771;DHT22;41687;-33.234;-60.334;2022-12-18T03:34:17;20.00;67.50
55771;DHT22;41687;-33.234;-60.334;2022-12-18T03:36:47;20.00;68.20
55771;DHT22;41687;-33.234;-60.334;2022-12-18T03:39:15;20.00;66.60
55771;DHT22;41687;-33.234;-60.334;2022-12-18T03:42:23;20.00;67.40
55771;DHT22;41687;-33.234;-60.334;2022-12-18T03:45:23;20.00;69.00
55771;DHT22;41687;-33.234;-60.334;2022-12-18T03:48:33;19.90;69.00
55771;DHT22;41687;-33.234;-60.334;2022-12-18T03:53:59;20.00;71.30
55771;DHT22;41687;-33.234;-60.334;2022-12-18T03:56:37;20.00;69.50
55771;DHT22;41687;-33.234;-60.334;2022-12-18T03:59:09;19.90;69.60
55771;DHT22;41687;-33.234;-60.334;2022-12-18T04:01:42;19.90;69.00
55771;DHT22;41687;-33.234;-60.334;2022-12-18T04:04:16;19.80;69.30
55771;DHT22;41687;-33.234;-60.334;2022-12-18T04:06:47;19.80;69.80
55771;DHT22;41687;-33.234;-60.334;2022-12-18T04:09:17;19.80;70.00
55771;DHT22;41687;-33.234;-60.334;2022-12-18T04:11:47;19.80;69.20
55771;DHT22;41687;-33.234;-60.334;2022-12-18T04:14:18;19.80;70.30
55771;DHT22;41687;-33.234;-60.334;2022-12-18T04:16:50;19.80;70.50
55771;DHT22;41687;-33.234;-60.334;2022-12-18T04:19:22;19.70;70.70
55771;DHT22;41687;-33.234;-60.334;2022-12-18T04:21:52;19.70;69.10
55771;DHT22;41687;-33.234;-60.334;2022-12-18T04:24:20;19.70;70.10
55771;DHT22;41687;-33.234;-60.334;2022-12-18T04:26:59;19.70;70.00
55771;DHT22;41687;-33.234;-60.334;2022-12-18T04:29:32;19.70;71.00
55771;DHT22;41687;-33.234;-60.334;2022-12-18T04:32:01;19.70;70.10
55771;DHT22;41687;-33.234;-60.334;2022-12-18T04:34:31;19.60;70.30
55771;DHT22;41687;-33.234;-60.334;2022-12-18T04:36:59;19.60;71.50
55771;DHT22;41687;-33.234;-60.334;2022-12-18T04:39:27;19.70;70.10
55771;DHT22;41687;-33.234;-60.334;2022-12-18T04:41:59;19.70;70.80
55771;DHT22;41687;-33.234;-60.334;2022-12-18T04:44:28;19.60;70.60
55771;DHT22;41687;-33.234;-60.334;2022-12-18T04:46:56;19.70;70.50
55771;DHT22;41687;-33.234;-60.334;2022-12-18T04:49:24;19.60;70.80
55771;DHT22;41687;-33.234;-60.334;2022-12-18T04:51:51;19.60;70.70
55771;DHT22;41687;-33.234;-60.334;2022-12-18T04:54:21;19.60;72.00
55771;DHT22;41687;-33.234;-60.334;2022-12-18T04:56:48;19.60;71.20
55771;DHT22;41687;-33.234;-60.334;2022-12-18T04:59:15;19.60;70.70
55771;DHT22;41687;-33.234;-60.334;2022-12-18T05:01:43;19.50;72.20
55771;DHT22;41687;-33.234;-60.334;2022-12-18T05:04:11;19.40;72.70
55771;DHT22;41687;-33.234;-60.334;2022-12-18T05:06:39;19.40;74.80
55771;DHT22;41687;-33.234;-60.334;2022-12-18T05:09:07;19.40;73.60
55771;DHT22;41687;-33.234;-60.334;2022-12-18T05:11:34;19.30;73.30
55771;DHT22;41687;-33.234;-60.334;2022-12-18T05:14:02;19.40;73.30
55771;DHT22;41687;-33.234;-60.334;2022-12-18T05:16:30;19.40;73.60
55771;DHT22;41687;-33.234;-60.334;2022-12-18T05:18:58;19.40;73.40
55771;DHT22;41687;-33.234;-60.334;2022-12-18T05:21:26;19.40;72.90
55771;DHT22;41687;-33.234;-60.334;2022-12-18T05:23:54;19.40;74.00
55771;DHT22;41687;-33.234;-60.334;2022-12-18T05:26:21;19.40;73.50
55771;DHT22;41687;-33.234;-60.334;2022-12-18T05:28:49;19.30;73.60
55771;DHT22;41687;-33.234;-60.334;2022-12-18T05:31:16;19.40;72.60
55771;DHT22;41687;-33.234;-60.334;2022-12-18T05:33:45;19.30;73.30
55771;DHT22;41687;-33.234;-60.334;2022-12-18T05:36:12;19.30;73.40
55771;DHT22;41687;-33.234;-60.334;2022-12-18T05:38:41;19.30;73.60
55771;DHT22;41687;-33.234;-60.334;2022-12-18T05:41:09;19.30;73.20
55771;DHT22;41687;-33.234;-60.334;2022-12-18T05:43:38;19.30;74.00
55771;DHT22;41687;-33.234;-60.334;2022-12-18T05:46:08;19.30;73.40
55771;DHT22;41687;-33.234;-60.334;2022-12-18T05:48:36;19.30;73.50
55771;DHT22;41687;-33.234;-60.334;2022-12-18T05:51:06;19.30;72.30
55771;DHT22;41687;-33.234;-60.334;2022-12-18T05:53:36;19.20;73.10
55771;DHT22;41687;-33.234;-60.334;2022-12-18T05:56:06;19.20;72.90
55771;DHT22;41687;-33.234;-60.334;2022-12-18T05:58:34;19.20;73.50
55771;DHT22;41687;-33.234;-60.334;2022-12-18T06:01:23;19.20;72.40
55771;DHT22;41687;-33.234;-60.334;2022-12-18T06:03:52;19.10;75.30
55771;DHT22;41687;-33.234;-60.334;2022-12-18T06:06:22;19.10;72.20
55771;DHT22;41687;-33.234;-60.334;2022-12-18T06:08:51;19.10;72.40
55771;DHT22;41687;-33.234;-60.334;2022-12-18T06:11:24;19.10;72.70
55771;DHT22;41687;-33.234;-60.334;2022-12-18T06:13:56;18.90;74.70
55771;DHT22;41687;-33.234;-60.334;2022-12-18T06:16:24;18.90;73.50
55771;DHT22;41687;-33.234;-60.334;2022-12-18T06:18:52;18.90;73.00
55771;DHT22;41687;-33.234;-60.334;2022-12-18T06:21:20;18.90;73.50
55771;DHT22;41687;-33.234;-60.334;2022-12-18T06:23:48;18.80;73.40
55771;DHT22;41687;-33.234;-60.334;2022-12-18T06:26:17;18.90;73.00
55771;DHT22;41687;-33.234;-60.334;2022-12-18T06:28:45;18.90;72.50
55771;DHT22;41687;-33.234;-60.334;2022-12-18T06:31:13;18.90;71.90
55771;DHT22;41687;-33.234;-60.334;2022-12-18T06:33:41;18.90;73.10
55771;DHT22;41687;-33.234;-60.334;2022-12-18T06:36:11;18.90;72.50
55771;DHT22;41687;-33.234;-60.334;2022-12-18T06:38:42;18.90;72.20
55771;DHT22;41687;-33.234;-60.334;2022-12-18T06:41:19;19.00;71.60
55771;DHT22;41687;-33.234;-60.334;2022-12-18T06:43:47;19.00;71.90
55771;DHT22;41687;-33.234;-60.334;2022-12-18T06:46:15;19.00;70.60
55771;DHT22;41687;-33.234;-60.334;2022-12-18T06:48:47;19.00;71.70
55771;DHT22;41687;-33.234;-60.334;2022-12-18T06:51:18;18.90;71.00
55771;DHT22;41687;-33.234;-60.334;2022-12-18T06:53:46;18.90;70.80
55771;DHT22;41687;-33.234;-60.334;2022-12-18T06:56:14;18.90;71.40
55771;DHT22;41687;-33.234;-60.334;2022-12-18T06:58:42;18.90;70.50
55771;DHT22;41687;-33.234;-60.334;2022-12-18T07:01:11;18.90;71.10
55771;DHT22;41687;-33.234;-60.334;2022-12-18T07:03:41;18.90;70.80
55771;DHT22;41687;-33.234;-60.334;2022-12-18T07:06:16;18.90;71.70
55771;DHT22;41687;-33.234;-60.334;2022-12-18T07:08:46;18.90;71.70
55771;DHT22;41687;-33.234;-60.334;2022-12-18T07:11:14;18.80;71.20
55771;DHT22;41687;-33.234;-60.334;2022-12-18T07:13:43;18.80;71.00
55771;DHT22;41687;-33.234;-60.334;2022-12-18T07:16:19;18.70;70.70
55771;DHT22;41687;-33.234;-60.334;2022-12-18T07:18:47;18.80;72.00
55771;DHT22;41687;-33.234;-60.334;2022-12-18T07:21:17;18.70;70.80
55771;DHT22;41687;-33.234;-60.334;2022-12-18T07:23:45;18.70;71.40
55771;DHT22;41687;-33.234;-60.334;2022-12-18T07:26:17;18.70;70.80
55771;DHT22;41687;-33.234;-60.334;2022-12-18T07:28:45;18.70;70.40
55771;DHT22;41687;-33.234;-60.334;2022-12-18T07:31:16;18.70;70.10
55771;DHT22;41687;-33.234;-60.334;2022-12-18T07:33:45;18.70;70.40
55771;DHT22;41687;-33.234;-60.334;2022-12-18T07:36:13;18.70;70.10
55771;DHT22;41687;-33.234;-60.334;2022-12-18T07:38:41;18.70;70.80
55771;DHT22;41687;-33.234;-60.334;2022-12-18T07:41:13;18.60;69.80
55771;DHT22;41687;-33.234;-60.334;2022-12-18T07:43:42;18.60;70.40
55771;DHT22;41687;-33.234;-60.334;2022-12-18T07:46:11;18.60;70.00
55771;DHT22;41687;-33.234;-60.334;2022-12-18T07:48:44;18.60;69.70
55771;DHT22;41687;-33.234;-60.334;2022-12-18T07:51:11;18.60;70.10
55771;DHT22;41687;-33.234;-60.334;2022-12-18T07:53:40;18.60;69.60
55771;DHT22;41687;-33.234;-60.334;2022-12-18T07:56:12;18.60;70.10
55771;DHT22;41687;-33.234;-60.334;2022-12-18T07:58:40;18.60;70.40
55771;DHT22;41687;-33.234;-60.334;2022-12-18T08:01:11;18.60;69.60
55771;DHT22;41687;-33.234;-60.334;2022-12-18T08:03:40;18.60;69.90
55771;DHT22;41687;-33.234;-60.334;2022-12-18T08:06:10;18.50;69.60
55771;DHT22;41687;-33.234;-60.334;2022-12-18T08:08:38;18.50;69.80
55771;DHT22;41687;-33.234;-60.334;2022-12-18T08:11:08;18.50;69.80
55771;DHT22;41687;-33.234;-60.334;2022-12-18T08:13:36;18.40;70.00
55771;DHT22;41687;-33.234;-60.334;2022-12-18T08:16:06;18.30;69.70
55771;DHT22;41687;-33.234;-60.334;2022-12-18T08:18:35;18.40;70.20
55771;DHT22;41687;-33.234;-60.334;2022-12-18T08:21:10;18.40;69.80
55771;DHT22;41687;-33.234;-60.334;2022-12-18T08:23:39;18.40;70.50
55771;DHT22;41687;-33.234;-60.334;2022-12-18T08:26:07;18.40;69.60
55771;DHT22;41687;-33.234;-60.334;2022-12-18T08:28:36;18.30;70.00
55771;DHT22;41687;-33.234;-60.334;2022-12-18T08:31:03;18.30;70.00
55771;DHT22;41687;-33.234;-60.334;2022-12-18T08:33:32;18.30;69.80
55771;DHT22;41687;-33.234;-60.334;2022-12-18T08:36:00;18.30;69.70
55771;DHT22;41687;-33.234;-60.334;2022-12-18T08:38:28;18.20;70.20
55771;DHT22;41687;-33.234;-60.334;2022-12-18T08:41:02;18.20;70.20
55771;DHT22;41687;-33.234;-60.334;2022-12-18T08:43:31;18.10;70.30
55771;DHT22;41687;-33.234;-60.334;2022-12-18T08:46:18;18.10;70.10
55771;DHT22;41687;-33.234;-60.334;2022-12-18T08:48:46;18.10;70.20
55771;DHT22;41687;-33.234;-60.334;2022-12-18T08:51:19;18.20;70.30
55771;DHT22;41687;-33.234;-60.334;2022-12-18T08:53:47;18.20;70.90
55771;DHT22;41687;-33.234;-60.334;2022-12-18T08:56:15;18.20;70.50
55771;DHT22;41687;-33.234;-60.334;2022-12-18T08:58:43;18.20;69.70
55771;DHT22;41687;-33.234;-60.334;2022-12-18T09:01:12;18.20;70.60
55771;DHT22;41687;-33.234;-60.334;2022-12-18T09:03:40;18.20;70.00
55771;DHT22;41687;-33.234;-60.334;2022-12-18T09:06:08;18.20;70.00
55771;DHT22;41687;-33.234;-60.334;2022-12-18T09:08:36;18.20;69.90
55771;DHT22;41687;-33.234;-60.334;2022-12-18T09:11:04;18.20;70.40
55771;DHT22;41687;-33.234;-60.334;2022-12-18T09:13:31;18.20;70.10
55771;DHT22;41687;-33.234;-60.334;2022-12-18T09:15:59;18.20;70.30
55771;DHT22;41687;-33.234;-60.334;2022-12-18T09:18:27;18.20;70.70
55771;DHT22;41687;-33.234;-60.334;2022-12-18T09:20:55;18.20;70.20
55771;DHT22;41687;-33.234;-60.334;2022-12-18T09:23:23;18.30;70.30
55771;DHT22;41687;-33.234;-60.334;2022-12-18T09:25:50;18.30;70.00
55771;DHT22;41687;-33.234;-60.334;2022-12-18T09:28:19;18.30;70.30
55771;DHT22;41687;-33.234;-60.334;2022-12-18T09:30:48;18.30;70.30
55771;DHT22;41687;-33.234;-60.334;2022-12-18T09:33:17;18.30;70.80
55771;DHT22;41687;-33.234;-60.334;2022-12-18T09:35:45;18.30;70.10
55771;DHT22;41687;-33.234;-60.334;2022-12-18T09:38:17;18.40;70.40
55771;DHT22;41687;-33.234;-60.334;2022-12-18T09:40:51;18.20;71.30
55771;DHT22;41687;-33.234;-60.334;2022-12-18T09:43:41;18.30;70.70
55771;DHT22;41687;-33.234;-60.334;2022-12-18T09:46:35;18.40;72.20
55771;DHT22;41687;-33.234;-60.334;2022-12-18T09:49:11;18.50;71.50
55771;DHT22;41687;-33.234;-60.334;2022-12-18T09:52:02;18.50;70.70
55771;DHT22;41687;-33.234;-60.334;2022-12-18T09:54:43;18.50;70.30
55771;DHT22;41687;-33.234;-60.334;2022-12-18T09:57:19;18.50;71.40
55771;DHT22;41687;-33.234;-60.334;2022-12-18T10:02:58;18.60;71.10
55771;DHT22;41687;-33.234;-60.334;2022-12-18T10:05:49;18.60;71.20
55771;DHT22;41687;-33.234;-60.334;2022-12-18T10:12:10;18.70;70.80
55771;DHT22;41687;-33.234;-60.334;2022-12-18T10:17:54;18.90;71.20
55771;DHT22;41687;-33.234;-60.334;2022-12-18T10:26:05;19.30;70.70
55771;DHT22;41687;-33.234;-60.334;2022-12-18T10:28:37;19.50;69.80
55771;DHT22;41687;-33.234;-60.334;2022-12-18T10:31:16;19.50;68.90
55771;DHT22;41687;-33.234;-60.334;2022-12-18T10:33:45;19.60;68.60
55771;DHT22;41687;-33.234;-60.334;2022-12-18T10:36:13;19.60;68.90
55771;DHT22;41687;-33.234;-60.334;2022-12-18T10:38:41;19.70;68.70
55771;DHT22;41687;-33.234;-60.334;2022-12-18T10:43:50;19.40;69.00
55771;DHT22;41687;-33.234;-60.334;2022-12-18T10:46:36;19.50;68.90
55771;DHT22;41687;-33.234;-60.334;2022-12-18T10:49:03;19.40;69.40
55771;DHT22;41687;-33.234;-60.334;2022-12-18T10:51:34;19.60;69.10
55771;DHT22;41687;-33.234;-60.334;2022-12-18T10:54:16;19.80;68.70
55771;DHT22;41687;-33.234;-60.334;2022-12-18T10:56:44;19.80;69.00
55771;DHT22;41687;-33.234;-60.334;2022-12-18T10:59:17;20.00;68.00
55771;DHT22;41687;-33.234;-60.334;2022-12-18T11:04:30;19.90;68.30
55771;DHT22;41687;-33.234;-60.334;2022-12-18T11:07:06;19.60;68.70
55771;DHT22;41687;-33.234;-60.334;2022-12-18T11:09:40;19.80;68.60
55771;DHT22;41687;-33.234;-60.334;2022-12-18T11:12:19;19.80;68.20
55771;DHT22;41687;-33.234;-60.334;2022-12-18T11:14:51;20.10;68.40
55771;DHT22;41687;-33.234;-60.334;2022-12-18T11:17:30;20.30;67.90
55771;DHT22;41687;-33.234;-60.334;2022-12-18T11:20:01;20.50;67.30
55771;DHT22;41687;-33.234;-60.334;2022-12-18T11:22:31;20.60;67.10
55771;DHT22;41687;-33.234;-60.334;2022-12-18T11:25:02;20.60;67.30
55771;DHT22;41687;-33.234;-60.334;2022-12-18T11:27:32;20.90;66.80
55771;DHT22;41687;-33.234;-60.334;2022-12-18T11:30:24;21.00;66.40
55771;DHT22;41687;-33.234;-60.334;2022-12-18T11:33:01;21.00;66.80
55771;DHT22;41687;-33.234;-60.334;2022-12-18T11:38:43;21.30;66.00
55771;DHT22;41687;-33.234;-60.334;2022-12-18T11:41:52;20.50;68.00
55771;DHT22;41687;-33.234;-60.334;2022-12-18T11:45:01;20.70;67.70
55771;DHT22;41687;-33.234;-60.334;2022-12-18T11:51:05;20.90;67.00
55771;DHT22;41687;-33.234;-60.334;2022-12-18T11:53:38;21.30;66.40
55771;DHT22;41687;-33.234;-60.334;2022-12-18T11:59:22;21.50;65.80
55771;DHT22;41687;-33.234;-60.334;2022-12-18T12:10:12;22.50;63.90
55771;DHT22;41687;-33.234;-60.334;2022-12-18T12:13:07;22.90;63.70
55771;DHT22;41687;-33.234;-60.334;2022-12-18T12:19:02;22.50;63.30
55771;DHT22;41687;-33.234;-60.334;2022-12-18T12:21:42;22.90;62.90
55771;DHT22;41687;-33.234;-60.334;2022-12-18T12:26:59;23.00;62.20
55771;DHT22;41687;-33.234;-60.334;2022-12-18T12:29:55;23.20;62.80
55771;DHT22;41687;-33.234;-60.334;2022-12-18T12:35:16;23.10;63.40
55771;DHT22;41687;-33.234;-60.334;2022-12-18T12:38:08;23.70;62.70
55771;DHT22;41687;-33.234;-60.334;2022-12-18T12:40:45;23.90;61.10
55771;DHT22;41687;-33.234;-60.334;2022-12-18T12:43:44;24.20;61.80
55771;DHT22;41687;-33.234;-60.334;2022-12-18T12:46:17;24.50;60.80
55771;DHT22;41687;-33.234;-60.334;2022-12-18T12:48:58;24.80;61.20
55771;DHT22;41687;-33.234;-60.334;2022-12-18T12:53:57;25.10;61.00
55771;DHT22;41687;-33.234;-60.334;2022-12-18T13:02:02;25.70;59.10
55771;DHT22;41687;-33.234;-60.334;2022-12-18T13:04:57;25.80;57.70
55771;DHT22;41687;-33.234;-60.334;2022-12-18T13:08:02;26.00;57.60
55771;DHT22;41687;-33.234;-60.334;2022-12-18T13:10:42;25.70;57.10
55771;DHT22;41687;-33.234;-60.334;2022-12-18T13:13:15;26.10;58.00
55771;DHT22;41687;-33.234;-60.334;2022-12-18T13:15:49;25.90;56.40
55771;DHT22;41687;-33.234;-60.334;2022-12-18T13:18:30;25.90;56.50
55771;DHT22;41687;-33.234;-60.334;2022-12-18T13:23:35;26.70;58.00
55771;DHT22;41687;-33.234;-60.334;2022-12-18T13:36:48;28.00;54.50
55771;DHT22;41687;-33.234;-60.334;2022-12-18T13:45:02;28.20;53.00
55771;DHT22;41687;-33.234;-60.334;2022-12-18T13:47:50;28.50;54.40
55771;DHT22;41687;-33.234;-60.334;2022-12-18T13:50:25;28.60;55.00
55771;DHT22;41687;-33.234;-60.334;2022-12-18T13:52:54;28.80;53.80
55771;DHT22;41687;-33.234;-60.334;2022-12-18T13:55:22;28.80;54.60
55771;DHT22;41687;-33.234;-60.334;2022-12-18T13:58:04;29.10;54.90
55771;DHT22;41687;-33.234;-60.334;2022-12-18T14:00:32;28.60;50.80
55771;DHT22;41687;-33.234;-60.334;2022-12-18T14:03:00;28.30;53.70
55771;DHT22;41687;-33.234;-60.334;2022-12-18T14:05:34;29.20;53.50
55771;DHT22;41687;-33.234;-60.334;2022-12-18T14:08:11;29.40;51.70
55771;DHT22;41687;-33.234;-60.334;2022-12-18T14:10:45;29.50;50.60
55771;DHT22;41687;-33.234;-60.334;2022-12-18T14:13:35;29.60;51.20
55771;DHT22;41687;-33.234;-60.334;2022-12-18T14:16:05;30.10;49.80
55771;DHT22;41687;-33.234;-60.334;2022-12-18T14:21:06;30.50;50.60
55771;DHT22;41687;-33.234;-60.334;2022-12-18T14:23:41;30.60;50.00
55771;DHT22;41687;-33.234;-60.334;2022-12-18T14:28:59;30.20;46.90
55771;DHT22;41687;-33.234;-60.334;2022-12-18T14:31:32;29.10;50.20
55771;DHT22;41687;-33.234;-60.334;2022-12-18T14:33:59;29.30;50.80
55771;DHT22;41687;-33.234;-60.334;2022-12-18T14:36:28;29.40;50.10
55771;DHT22;41687;-33.234;-60.334;2022-12-18T14:38:57;29.20;45.90
55771;DHT22;41687;-33.234;-60.334;2022-12-18T14:41:27;29.50;49.30
55771;DHT22;41687;-33.234;-60.334;2022-12-18T14:43:56;30.20;50.00
55771;DHT22;41687;-33.234;-60.334;2022-12-18T14:46:34;30.60;50.00
55771;DHT22;41687;-33.234;-60.334;2022-12-18T14:49:23;30.90;48.40
55771;DHT22;41687;-33.234;-60.334;2022-12-18T14:51:59;31.20;46.80
55771;DHT22;41687;-33.234;-60.334;2022-12-18T14:54:28;31.20;46.60
55771;DHT22;41687;-33.234;-60.334;2022-12-18T14:57:28;31.60;48.00
55771;DHT22;41687;-33.234;-60.334;2022-12-18T15:00:07;31.80;44.30
55771;DHT22;41687;-33.234;-60.334;2022-12-18T15:02:39;31.60;45.40
55771;DHT22;41687;-33.234;-60.334;2022-12-18T15:07:46;30.80;47.20
55771;DHT22;41687;-33.234;-60.334;2022-12-18T15:10:46;31.10;47.60
55771;DHT22;41687;-33.234;-60.334;2022-12-18T15:13:23;31.00;43.10
55771;DHT22;41687;-33.234;-60.334;2022-12-18T15:15:52;30.50;47.10
55771;DHT22;41687;-33.234;-60.334;2022-12-18T15:18:25;30.80;47.60
55771;DHT22;41687;-33.234;-60.334;2022-12-18T15:20:59;30.30;44.40
55771;DHT22;41687;-33.234;-60.334;2022-12-18T15:26:08;29.20;47.50
55771;DHT22;41687;-33.234;-60.334;2022-12-18T15:31:34;29.00;44.70
55771;DHT22;41687;-33.234;-60.334;2022-12-18T15:36:36;29.30;46.90
55771;DHT22;41687;-33.234;-60.334;2022-12-18T15:39:05;29.60;45.90
55771;DHT22;41687;-33.234;-60.334;2022-12-18T15:41:34;29.90;45.10
55771;DHT22;41687;-33.234;-60.334;2022-12-18T15:44:22;30.00;45.20
55771;DHT22;41687;-33.234;-60.334;2022-12-18T15:46:50;30.20;43.10
55771;DHT22;41687;-33.234;-60.334;2022-12-18T15:49:18;30.20;44.70
55771;DHT22;41687;-33.234;-60.334;2022-12-18T15:51:52;29.60;44.80
55771;DHT22;41687;-33.234;-60.334;2022-12-18T15:54:21;29.30;45.00
55771;DHT22;41687;-33.234;-60.334;2022-12-18T15:57:12;29.30;46.10
55771;DHT22;41687;-33.234;-60.334;2022-12-18T15:59:54;29.70;45.00
55771;DHT22;41687;-33.234;-60.334;2022-12-18T16:02:25;29.60;44.80
55771;DHT22;41687;-33.234;-60.334;2022-12-18T16:04:54;29.50;44.50
55771;DHT22;41687;-33.234;-60.334;2022-12-18T16:07:22;29.00;45.10
55771;DHT22;41687;-33.234;-60.334;2022-12-18T16:09:50;29.30;45.30
55771;DHT22;41687;-33.234;-60.334;2022-12-18T16:12:20;29.40;44.80
55771;DHT22;41687;-33.234;-60.334;2022-12-18T16:14:49;29.50;43.80
55771;DHT22;41687;-33.234;-60.334;2022-12-18T16:17:16;29.60;43.70
55771;DHT22;41687;-33.234;-60.334;2022-12-18T16:19:45;29.80;44.80
55771;DHT22;41687;-33.234;-60.334;2022-12-18T16:22:24;29.90;44.60
55771;DHT22;41687;-33.234;-60.334;2022-12-18T16:24:53;30.00;41.50
55771;DHT22;41687;-33.234;-60.334;2022-12-18T16:27:21;29.90;43.30
55771;DHT22;41687;-33.234;-60.334;2022-12-18T16:29:49;29.90;43.30
55771;DHT22;41687;-33.234;-60.334;2022-12-18T16:32:20;30.00;43.30
55771;DHT22;41687;-33.234;-60.334;2022-12-18T16:34:49;29.40;40.10
55771;DHT22;41687;-33.234;-60.334;2022-12-18T16:37:16;29.30;44.10
55771;DHT22;41687;-33.234;-60.334;2022-12-18T16:39:44;29.50;43.60
55771;DHT22;41687;-33.234;-60.334;2022-12-18T16:42:13;29.50;43.40
55771;DHT22;41687;-33.234;-60.334;2022-12-18T16:44:44;29.80;43.50
55771;DHT22;41687;-33.234;-60.334;2022-12-18T16:47:13;29.80;43.10
55771;DHT22;41687;-33.234;-60.334;2022-12-18T16:49:41;29.30;43.30
55771;DHT22;41687;-33.234;-60.334;2022-12-18T16:52:08;29.00;43.70
55771;DHT22;41687;-33.234;-60.334;2022-12-18T16:54:37;29.20;43.10
55771;DHT22;41687;-33.234;-60.334;2022-12-18T16:57:04;29.20;42.30
55771;DHT22;41687;-33.234;-60.334;2022-12-18T16:59:35;28.90;41.80
55771;DHT22;41687;-33.234;-60.334;2022-12-18T17:02:03;28.90;43.30
55771;DHT22;41687;-33.234;-60.334;2022-12-18T17:04:31;28.90;41.20
55771;DHT22;41687;-33.234;-60.334;2022-12-18T17:07:00;28.30;40.80
55771;DHT22;41687;-33.234;-60.334;2022-12-18T17:09:35;28.30;43.80
55771;DHT22;41687;-33.234;-60.334;2022-12-18T17:12:04;28.70;43.70
55771;DHT22;41687;-33.234;-60.334;2022-12-18T17:14:33;29.10;44.10
55771;DHT22;41687;-33.234;-60.334;2022-12-18T17:17:00;29.20;43.80
55771;DHT22;41687;-33.234;-60.334;2022-12-18T17:19:29;29.30;43.60
55771;DHT22;41687;-33.234;-60.334;2022-12-18T17:21:56;29.30;42.10
55771;DHT22;41687;-33.234;-60.334;2022-12-18T17:24:25;29.20;43.20